Time;durP1;ratioP1;P1;durP2;ratioP2;P2;SDS_P1;SDS_P2;PMS_P1;PMS_P2;Temp;Humidity;BMP_temperature;BMP_pressure;BME280_temperature;BME280_humidity;BME280_pressure;Samples;Min_cycle;Max_cycle;Signal;HPM_P1;HPM_P2
2021/09/21 00:00:30;;;;;;;6.00;4.70;;;;;;;7.66;96.14;102373.81;4760685;30;20400;-78
2021/09/21 00:02:55;;;;;;;7.63;5.03;;;;;;;7.59;96.22;102365.50;4755218;30;20044;-78
2021/09/21 00:05:21;;;;;;;6.97;4.82;;;;;;;7.57;96.22;102361.25;4755381;30;20031;-78
2021/09/21 00:07:46;;;;;;;7.72;5.82;;;;;;;7.55;96.06;102356.06;4766616;30;20046;-78
2021/09/21 00:10:13;;;;;;;6.25;5.47;;;;;;;7.54;96.38;102367.72;4772275;30;20044;-78
2021/09/21 00:12:39;;;;;;;7.65;5.72;;;;;;;7.47;96.56;102366.59;4773190;30;20470;-78
2021/09/21 00:15:08;;;;;;;8.82;6.03;;;;;;;7.44;96.03;102372.25;4773333;30;20061;-78
2021/09/21 00:17:33;;;;;;;8.02;5.80;;;;;;;7.44;96.40;102378.44;4758317;30;20050;-78
2021/09/21 00:19:59;;;;;;;6.72;5.57;;;;;;;7.43;96.41;102374.06;4771067;30;20035;-79
2021/09/21 00:22:24;;;;;;;6.43;5.80;;;;;;;7.47;96.97;102372.81;4757737;30;20116;-78
2021/09/21 00:24:49;;;;;;;9.50;6.40;;;;;;;7.45;97.11;102360.53;4773748;30;20063;-78
2021/09/21 00:27:16;;;;;;;7.25;6.22;;;;;;;7.39;97.15;102371.84;4772664;30;20027;-78
2021/09/21 00:29:42;;;;;;;8.15;6.35;;;;;;;7.40;97.45;102385.06;4757029;30;20117;-77
2021/09/21 00:32:13;;;;;;;7.53;6.05;;;;;;;7.26;97.35;102367.56;4772034;30;20052;-78
2021/09/21 00:34:39;;;;;;;9.05;6.22;;;;;;;7.37;97.57;102382.66;4772227;30;20032;-78
2021/09/21 00:37:14;;;;;;;10.68;6.70;;;;;;;7.35;97.39;102386.47;4756858;30;20538;-78
2021/09/21 00:39:42;;;;;;;9.13;6.28;;;;;;;7.35;97.70;102392.69;4773523;30;20114;-78
2021/09/21 00:42:08;;;;;;;9.07;6.28;;;;;;;7.38;97.48;102387.03;4757962;30;20116;-78
2021/09/21 00:44:35;;;;;;;8.90;6.50;;;;;;;7.41;97.39;102385.91;4757689;30;20486;-78
2021/09/21 00:47:02;;;;;;;10.15;5.80;;;;;;;7.44;97.21;102388.31;4758965;30;20122;-78
2021/09/21 00:49:29;;;;;;;9.63;5.85;;;;;;;7.38;96.97;102368.28;4771909;30;20044;-78
2021/09/21 00:51:56;;;;;;;8.02;5.85;;;;;;;7.47;97.12;102370.13;4773408;30;20031;-78
2021/09/21 00:54:22;;;;;;;8.75;6.20;;;;;;;7.50;96.49;102377.88;4773914;30;20126;-78
2021/09/21 00:56:48;;;;;;;7.30;5.45;;;;;;;7.56;96.35;102383.69;4774595;30;20078;-78
2021/09/21 00:59:13;;;;;;;8.48;5.63;;;;;;;7.60;95.68;102388.59;4771257;30;20046;-78
2021/09/21 01:01:39;;;;;;;7.78;5.68;;;;;;;7.62;95.73;102394.69;4772177;30;20027;-78
2021/09/21 01:04:05;;;;;;;9.30;5.90;;;;;;;7.62;96.28;102392.00;4771625;30;20371;-77
2021/09/21 01:06:32;;;;;;;9.15;5.63;;;;;;;7.61;95.34;102392.97;4775776;30;20040;-78
2021/09/21 01:08:58;;;;;;;7.57;5.82;;;;;;;7.61;96.09;102394.81;4762613;30;20035;-78
2021/09/21 01:11:24;;;;;;;6.40;5.20;;;;;;;7.74;95.77;102404.25;4775751;30;20050;-78
2021/09/21 01:13:49;;;;;;;7.80;5.22;;;;;;;7.76;96.40;102401.44;4774240;30;20039;-78
2021/09/21 01:16:15;;;;;;;6.50;4.95;;;;;;;7.66;96.24;102379.16;4761020;30;20031;-78
2021/09/21 01:18:42;;;;;;;6.97;5.45;;;;;;;7.76;96.18;102396.09;4775012;30;20059;-77
2021/09/21 01:21:12;;;;;;;5.80;5.20;;;;;;;7.76;95.90;102396.09;4777697;30;20459;-78
2021/09/21 01:24:04;;;;;;;8.48;5.70;;;;;;;7.74;95.96;102388.16;4777616;30;20055;-78
2021/09/21 01:26:30;;;;;;;7.95;5.25;;;;;;;7.72;95.96;102386.66;4780253;30;20081;-78
2021/09/21 01:28:55;;;;;;;9.52;6.22;;;;;;;7.62;96.60;102367.88;4766206;30;20130;-77
2021/09/21 01:31:21;;;;;;;6.43;5.55;;;;;;;7.72;96.58;102386.66;4778283;30;20056;-78
2021/09/21 01:33:48;;;;;;;10.73;5.85;;;;;;;7.72;97.01;102381.28;4774352;30;20044;-78
2021/09/21 01:36:16;;;;;;;11.20;6.15;;;;;;;7.71;96.80;102363.50;4776821;30;20035;-77
2021/09/21 01:38:42;;;;;;;7.75;5.20;;;;;;;7.67;96.97;102362.94;4774664;30;20036;-78
2021/09/21 01:41:07;;;;;;;7.72;5.63;;;;;;;7.52;97.04;102335.75;4760225;30;20036;-77
2021/09/21 01:43:32;;;;;;;8.13;6.30;;;;;;;7.63;96.65;102348.13;4773669;30;20046;-78
2021/09/21 01:45:58;;;;;;;7.00;6.10;;;;;;;7.71;96.62;102350.09;4771127;30;20378;-78
2021/09/21 01:48:23;;;;;;;8.23;6.45;;;;;;;7.71;96.45;102345.56;4758616;30;20032;-78
2021/09/21 01:51:01;;;;;;;7.15;5.90;;;;;;;7.73;96.42;102340.94;4771373;30;20451;-78
2021/09/21 01:58:51;;;;;;;8.88;5.72;;;;;;;7.68;96.07;102320.91;4758148;30;20050;-78
2021/09/21 02:01:22;;;;;;;7.18;6.03;;;;;;;7.73;96.55;102318.66;4773067;30;20047;-77
2021/09/21 02:03:49;;;;;;;6.85;6.15;;;;;;;7.63;96.42;102289.19;4755408;30;20036;-77
2021/09/21 02:06:16;;;;;;;10.15;6.30;;;;;;;7.69;96.74;102301.19;4772010;30;20177;-78
2021/09/21 02:08:41;;;;;;;12.95;6.20;;;;;;;7.66;97.12;102301.47;4757083;30;20467;-78
2021/09/21 02:11:07;;;;;;;9.32;6.13;;;;;;;7.65;96.83;102302.44;4771066;30;20039;-78
2021/09/21 02:13:34;;;;;;;6.93;5.97;;;;;;;7.64;96.67;102304.28;4771938;30;20043;-78
2021/09/21 02:15:59;;;;;;;8.98;6.80;;;;;;;7.61;96.82;102301.03;4770741;30;20055;-78
2021/09/21 02:18:25;;;;;;;8.82;6.25;;;;;;;7.58;97.16;102288.78;4771980;30;20101;-78
2021/09/21 02:20:51;;;;;;;10.93;6.50;;;;;;;7.57;97.07;102284.41;4771902;30;20096;-78
2021/09/21 02:23:17;;;;;;;6.85;6.07;;;;;;;7.58;96.97;102293.28;4771761;30;20055;-78
2021/09/21 02:25:42;;;;;;;9.63;6.10;;;;;;;7.60;97.77;102294.00;4771394;30;20067;-78
2021/09/21 02:28:08;;;;;;;12.30;6.43;;;;;;;7.49;97.70;102279.78;4755824;30;20130;-78
2021/09/21 02:30:35;;;;;;;11.40;6.43;;;;;;;7.53;97.67;102283.84;4771097;30;20073;-78
2021/09/21 02:33:00;;;;;;;8.48;6.40;;;;;;;7.57;97.26;102289.78;4765730;30;20436;-78
2021/09/21 02:35:26;;;;;;;8.43;6.32;;;;;;;7.60;97.81;102289.47;4770778;30;20071;-77
2021/09/21 02:37:51;;;;;;;7.32;5.97;;;;;;;7.61;97.55;102288.47;4771646;30;20089;-78
2021/09/21 02:40:17;;;;;;;8.00;5.97;;;;;;;7.61;97.88;102295.69;4756463;30;20040;-78
2021/09/21 02:42:43;;;;;;;7.72;6.05;;;;;;;7.62;97.41;102281.31;4772142;30;20448;-78
2021/09/21 02:45:09;;;;;;;10.55;6.70;;;;;;;7.61;97.79;102280.44;4756460;30;20535;-78
2021/09/21 02:47:35;;;;;;;8.15;6.15;;;;;;;7.61;97.92;102277.78;4756661;30;20036;-78
2021/09/21 02:50:01;;;;;;;7.65;6.60;;;;;;;7.57;98.29;102278.22;4771836;30;20040;-79
2021/09/21 02:52:26;;;;;;;8.68;6.35;;;;;;;7.62;98.38;102286.69;4756653;30;20067;-78
2021/09/21 02:54:52;;;;;;;8.93;6.25;;;;;;;7.60;98.49;102294.84;4756739;30;20459;-78
2021/09/21 02:57:17;;;;;;;10.55;6.45;;;;;;;7.61;98.58;102284.97;4756423;30;20432;-78
2021/09/21 02:59:43;;;;;;;9.45;6.63;;;;;;;7.59;98.68;102289.66;4756001;30;20126;-78
2021/09/21 03:02:08;;;;;;;7.40;6.30;;;;;;;7.59;99.04;102293.16;4757512;30;20032;-77
2021/09/21 03:04:38;;;;;;;7.72;6.50;;;;;;;7.61;98.66;102287.66;4776063;30;20368;-78
2021/09/21 03:07:10;;;;;;;8.50;6.78;;;;;;;7.62;99.07;102273.28;4757714;30;20040;-78
2021/09/21 03:17:26;;;;;;;10.17;6.93;;;;;;;7.48;99.24;102232.56;4764104;30;20039;-77
2021/09/21 03:19:52;;;;;;;10.43;6.78;;;;;;;7.68;99.55;102253.94;4779739;30;20057;-76
2021/09/21 03:22:18;;;;;;;10.15;6.75;;;;;;;7.72;99.79;102258.03;4760304;30;20048;-77
2021/09/21 03:24:43;;;;;;;12.70;6.82;;;;;;;7.75;99.77;102255.06;4767179;30;20108;-78
2021/09/21 03:27:09;;;;;;;7.22;6.35;;;;;;;7.76;99.79;102254.06;4758075;30;20093;-78
2021/09/21 03:29:34;;;;;;;8.73;6.40;;;;;;;7.64;99.71;102226.59;4771691;30;20059;-77
2021/09/21 03:32:00;;;;;;;12.60;6.90;;;;;;;7.72;99.81;102239.28;4772539;30;20055;-77
2021/09/21 03:34:26;;;;;;;8.70;6.80;;;;;;;7.79;99.92;102248.41;4774077;30;20462;-77
2021/09/21 03:36:51;;;;;;;8.75;6.50;;;;;;;7.80;99.86;102247.41;4762107;30;20188;-78
2021/09/21 03:39:17;;;;;;;8.82;6.88;;;;;;;7.80;100.00;102244.75;4773564;30;20043;-78
2021/09/21 03:41:42;;;;;;;8.05;6.60;;;;;;;7.76;100.00;102224.59;4758131;30;20514;-78
2021/09/21 03:44:08;;;;;;;10.23;7.07;;;;;;;7.86;100.00;102240.63;4773396;30;20035;-78
2021/09/21 03:46:33;;;;;;;10.40;6.93;;;;;;;7.82;100.00;102226.69;4759500;30;20082;-78
2021/09/21 03:48:58;;;;;;;9.02;6.85;;;;;;;7.87;100.00;102229.75;4757855;30;20356;-78
2021/09/21 03:51:24;;;;;;;8.75;6.90;;;;;;;7.91;100.00;102238.34;4743848;30;20759;-78
2021/09/21 03:53:49;;;;;;;12.75;7.18;;;;;;;7.90;100.00;102221.44;4755339;30;20036;-78
2021/09/21 03:56:15;;;;;;;8.50;6.72;;;;;;;7.93;100.00;102222.97;4754624;30;20049;-78
2021/09/21 03:58:41;;;;;;;12.50;7.55;;;;;;;7.95;100.00;102227.22;4757095;30;20032;-79
2021/09/21 04:01:06;;;;;;;8.80;6.60;;;;;;;7.95;100.00;102226.38;4759045;30;20035;-78
2021/09/21 04:03:31;;;;;;;10.38;6.90;;;;;;;7.98;100.00;102232.28;4774335;30;20619;-78
2021/09/21 04:05:57;;;;;;;8.88;7.05;;;;;;;7.95;100.00;102227.22;4772712;30;20462;-78
2021/09/21 04:08:22;;;;;;;10.88;7.93;;;;;;;8.03;100.00;102236.34;4772975;30;20657;-78
2021/09/21 04:10:48;;;;;;;9.73;6.68;;;;;;;8.05;100.00;102242.41;4774230;30;20080;-77
2021/09/21 04:13:13;;;;;;;9.63;6.90;;;;;;;8.00;100.00;102232.13;4758514;30;20040;-78
2021/09/21 04:15:40;;;;;;;10.32;7.05;;;;;;;8.08;100.00;102236.72;4772867;30;20196;-78
2021/09/21 04:18:08;;;;;;;10.40;7.70;;;;;;;8.10;100.00;102229.41;4758046;30;20046;-78
2021/09/21 04:20:33;;;;;;;8.68;6.80;;;;;;;8.11;100.00;102228.41;4774939;30;20047;-78
2021/09/21 04:22:58;;;;;;;9.70;7.18;;;;;;;8.05;100.00;102216.44;4764097;30;20031;-79
2021/09/21 04:25:24;;;;;;;10.35;6.97;;;;;;;8.13;100.00;102221.06;4787177;30;20047;-79
2021/09/21 04:27:50;;;;;;;10.43;6.85;;;;;;;8.14;100.00;102222.75;4777007;30;20371;-79
2021/09/21 04:30:21;;;;;;;8.52;7.20;;;;;;;8.15;100.00;102217.25;4776493;30;20114;-78
2021/09/21 04:32:47;;;;;;;10.15;7.07;;;;;;;8.16;100.00;102212.72;4760951;30;20113;-79
2021/09/21 04:35:12;;;;;;;9.57;7.40;;;;;;;8.17;100.00;102207.19;4757915;30;20434;-77
2021/09/21 04:37:38;;;;;;;9.15;7.18;;;;;;;8.18;100.00;102195.50;4754898;30;20055;-77
2021/09/21 04:40:05;;;;;;;10.27;7.13;;;;;;;8.19;100.00;102207.91;4760547;30;20470;-78
2021/09/21 04:42:30;;;;;;;8.68;7.57;;;;;;;8.20;100.00;102203.38;4780284;30;20096;-78
2021/09/21 04:44:56;;;;;;;9.25;7.30;;;;;;;8.21;100.00;102208.59;4778682;30;20082;-79
2021/09/21 04:47:21;;;;;;;8.75;7.43;;;;;;;8.19;100.00;102189.13;4779151;30;20455;-79
2021/09/21 04:49:47;;;;;;;8.15;6.97;;;;;;;8.19;100.00;102189.13;4785150;30;20036;-79
2021/09/21 04:52:15;;;;;;;9.65;7.32;;;;;;;8.24;100.00;102197.59;4773051;30;20043;-79
2021/09/21 04:54:40;;;;;;;7.88;7.07;;;;;;;8.30;100.00;102196.13;4778544;30;20035;-78
2021/09/21 04:57:06;;;;;;;8.35;7.45;;;;;;;8.34;100.00;102194.81;4764533;30;20122;-79
2021/09/21 04:59:31;;;;;;;8.80;6.88;;;;;;;8.33;100.00;102181.56;4758982;30;20122;-79
2021/09/21 05:01:57;;;;;;;8.27;6.53;;;;;;;8.34;100.00;102186.78;4739034;30;20530;-79
2021/09/21 05:04:22;;;;;;;9.68;7.13;;;;;;;8.42;100.00;102192.28;4756266;30;20036;-79
2021/09/21 05:06:47;;;;;;;8.43;6.97;;;;;;;8.42;100.00;102184.22;4773027;30;20050;-79
2021/09/21 05:09:14;;;;;;;9.35;7.47;;;;;;;8.38;100.00;102171.28;4777142;30;20372;-79
2021/09/21 05:11:40;;;;;;;11.50;7.28;;;;;;;8.47;100.00;102198.03;4772424;30;20051;-78
2021/09/21 05:14:06;;;;;;;9.63;7.43;;;;;;;8.50;100.00;102196.03;4771820;30;20043;-77
2021/09/21 05:16:33;;;;;;;9.85;7.47;;;;;;;8.47;100.00;102179.25;4771877;30;20122;-78
2021/09/21 05:18:59;;;;;;;13.75;7.22;;;;;;;8.47;100.00;102173.88;4758957;30;20023;-77
2021/09/21 05:21:24;;;;;;;8.65;7.20;;;;;;;8.57;100.00;102181.03;4756303;30;20100;-78
2021/09/21 05:23:49;;;;;;;7.93;7.10;;;;;;;8.58;100.00;102172.00;4754818;30;20059;-79
2021/09/21 05:26:16;;;;;;;12.35;7.45;;;;;;;8.63;100.00;102191.16;4764127;30;20101;-78
2021/09/21 05:28:41;;;;;;;10.73;7.30;;;;;;;8.67;100.00;102182.63;4758781;30;20363;-77
2021/09/21 05:31:06;;;;;;;9.90;8.00;;;;;;;8.71;100.00;102177.81;4756575;30;20240;-78
2021/09/21 05:33:32;;;;;;;8.48;7.28;;;;;;;8.73;100.00;102170.44;4768606;30;20048;-77
2021/09/21 05:35:57;;;;;;;10.63;7.75;;;;;;;8.73;100.00;102165.06;4770788;30;20054;-78
2021/09/21 05:38:23;;;;;;;10.05;7.90;;;;;;;8.76;100.00;102161.25;4751833;30;20044;-77
2021/09/21 05:40:50;;;;;;;10.32;8.20;;;;;;;8.86;100.00;102172.75;4769009;30;20044;-78
2021/09/21 05:43:15;;;;;;;9.07;7.35;;;;;;;8.81;100.00;102165.16;4766666;30;20138;-77
2021/09/21 05:45:40;;;;;;;9.75;7.68;;;;;;;8.92;100.00;102166.75;4767210;30;20764;-79
2021/09/21 05:48:06;;;;;;;12.13;7.82;;;;;;;8.85;100.00;102154.97;4769168;30;20096;-79
2021/09/21 05:50:31;;;;;;;10.23;7.60;;;;;;;8.97;100.00;102172.50;4752766;30;20050;-78
2021/09/21 05:52:57;;;;;;;9.20;7.95;;;;;;;8.99;100.00;102172.34;4754000;30;20031;-78
2021/09/21 05:55:22;;;;;;;10.52;7.97;;;;;;;9.03;100.00;102177.25;4753577;30;20040;-78
2021/09/21 05:57:48;;;;;;;11.07;8.50;;;;;;;9.05;100.00;102166.38;4754097;30;20116;-77
2021/09/21 06:00:14;;;;;;;10.30;7.95;;;;;;;8.91;100.00;102138.25;4769401;30;20036;-78
2021/09/21 06:02:39;;;;;;;12.23;8.90;;;;;;;9.11;100.00;102168.44;4770742;30;20100;-78
2021/09/21 06:05:06;;;;;;;11.73;8.50;;;;;;;9.17;100.00;102167.78;4770740;30;20027;-78
2021/09/21 06:07:34;;;;;;;11.30;8.20;;;;;;;9.14;100.00;102154.69;4755422;30;20046;-78
2021/09/21 06:10:01;;;;;;;9.05;8.02;;;;;;;9.22;100.00;102168.19;4754756;30;20059;-78
2021/09/21 06:12:27;;;;;;;11.90;8.35;;;;;;;9.24;100.00;102158.13;4771308;30;20040;-78
2021/09/21 06:14:53;;;;;;;11.88;8.20;;;;;;;9.34;100.00;102168.78;4752931;30;20036;-77
2021/09/21 06:17:18;;;;;;;11.35;7.82;;;;;;;9.38;100.00;102165.59;4767613;30;20104;-78
2021/09/21 06:19:43;;;;;;;10.48;8.20;;;;;;;9.45;100.00;102159.59;4752509;30;20420;-78
2021/09/21 06:22:09;;;;;;;12.43;8.15;;;;;;;9.53;100.00;102156.94;4766792;30;20056;-78
2021/09/21 06:24:34;;;;;;;11.02;8.27;;;;;;;9.61;100.00;102159.69;4752161;30;20619;-78
2021/09/21 06:27:00;;;;;;;11.65;8.30;;;;;;;9.70;100.00;102149.81;4752121;30;20032;-79
2021/09/21 06:29:25;;;;;;;11.32;7.95;;;;;;;9.77;100.00;102145.50;4752308;30;20709;-79
2021/09/21 06:31:50;;;;;;;9.05;7.53;;;;;;;9.84;100.00;102144.69;4767266;30;20063;-78
2021/09/21 06:34:16;;;;;;;8.82;7.50;;;;;;;9.86;100.00;102134.59;4768877;30;20075;-79
2021/09/21 06:36:41;;;;;;;11.05;7.55;;;;;;;9.98;100.00;102135.16;4767217;30;20872;-78
2021/09/21 06:39:06;;;;;;;11.18;7.57;;;;;;;10.06;100.00;102121.72;4755891;30;20035;-78
2021/09/21 06:41:32;;;;;;;7.43;6.68;;;;;;;10.14;100.00;102109.34;4771508;30;20562;-79
2021/09/21 06:43:57;;;;;;;9.77;6.80;;;;;;;10.15;100.00;102114.53;4756116;30;20052;-78
2021/09/21 06:46:23;;;;;;;8.30;6.45;;;;;;;10.24;100.00;102132.38;4771053;30;20036;-78
2021/09/21 06:48:48;;;;;;;9.45;6.45;;;;;;;10.27;100.00;102128.56;4769363;30;20092;-78
2021/09/21 06:51:14;;;;;;;9.43;6.55;;;;;;;10.31;100.00;102125.38;4752756;30;20036;-78
2021/09/21 06:53:39;;;;;;;7.50;5.97;;;;;;;10.39;100.00;102134.47;4771918;30;20104;-77
2021/09/21 06:56:05;;;;;;;9.82;5.75;;;;;;;10.36;100.00;102108.72;4770543;30;20043;-77
2021/09/21 06:58:33;;;;;;;6.65;5.13;;;;;;;10.40;100.00;102112.78;4760188;30;20036;-77
2021/09/21 07:00:58;;;;;;;6.57;5.03;;;;;;;10.42;100.00;102105.38;4756670;30;20138;-77
2021/09/21 07:03:24;;;;;;;6.75;4.50;;;;;;;10.47;100.00;102108.41;4769972;30;20511;-78
2021/09/21 07:05:49;;;;;;;8.88;4.22;;;;;;;10.56;100.00;102115.50;4757546;30;20035;-77
2021/09/21 07:08:16;;;;;;;5.55;3.53;;;;;;;10.61;98.67;102123.06;4755499;30;20040;-78
2021/09/21 07:10:41;;;;;;;3.53;2.88;;;;;;;10.66;97.79;102123.41;4741114;30;20036;-78
2021/09/21 07:13:06;;;;;;;4.88;3.00;;;;;;;10.72;97.26;102122.72;4756789;30;20054;-77
2021/09/21 07:15:32;;;;;;;3.65;2.90;;;;;;;10.70;96.66;102111.28;4774220;30;20031;-77
2021/09/21 07:17:57;;;;;;;4.60;2.90;;;;;;;10.79;95.86;102113.00;4773906;30;20070;-78
2021/09/21 07:20:25;;;;;;;3.15;2.83;;;;;;;10.90;95.64;102127.13;4776235;30;20084;-78
2021/09/21 07:22:51;;;;;;;3.42;2.92;;;;;;;10.92;95.30;102107.06;4760600;30;20040;-78
2021/09/21 07:25:20;;;;;;;3.75;2.95;;;;;;;10.98;94.43;102119.03;4765797;30;20122;-77
2021/09/21 07:27:47;;;;;;;4.40;3.25;;;;;;;10.98;94.11;102101.00;4780785;30;20032;-77
2021/09/21 07:30:13;;;;;;;6.38;3.40;;;;;;;11.14;94.32;102108.22;4752471;30;20055;-77
2021/09/21 07:32:39;;;;;;;4.38;3.00;;;;;;;11.14;94.03;102096.63;4767463;30;20094;-77
2021/09/21 07:35:06;;;;;;;5.10;3.30;;;;;;;11.22;93.93;102102.81;4777649;30;20055;-77
2021/09/21 07:37:32;;;;;;;4.22;3.05;;;;;;;11.23;94.22;102101.81;4766685;30;20055;-77
2021/09/21 07:39:57;;;;;;;4.43;3.10;;;;;;;11.26;94.18;102101.47;4771079;30;20043;-77
2021/09/21 07:42:23;;;;;;;3.88;3.13;;;;;;;11.27;93.89;102092.38;4743521;30;20360;-78
2021/09/21 07:44:48;;;;;;;5.22;3.40;;;;;;;11.33;93.96;102096.25;4770253;30;20027;-78
2021/09/21 07:47:15;;;;;;;4.07;3.10;;;;;;;11.35;93.84;102101.44;4755370;30;20122;-78
2021/09/21 07:49:41;;;;;;;4.15;3.25;;;;;;;11.35;94.00;102094.19;4754550;30;20134;-78
2021/09/21 07:52:06;;;;;;;4.15;3.28;;;;;;;11.44;93.87;102109.34;4780049;30;20027;-77
2021/09/21 07:54:32;;;;;;;4.63;3.03;;;;;;;11.48;93.91;102112.53;4782172;30;20054;-78
2021/09/21 07:56:57;;;;;;;4.93;3.30;;;;;;;11.45;93.85;102105.63;4778322;30;20134;-78
2021/09/21 07:59:23;;;;;;;4.43;3.05;;;;;;;11.53;93.48;102104.78;4774318;30;20050;-78
2021/09/21 08:01:48;;;;;;;3.85;3.00;;;;;;;11.56;93.68;102098.19;4755093;30;20070;-79
2021/09/21 08:04:14;;;;;;;5.28;3.03;;;;;;;11.60;93.15;102104.91;4761730;30;20032;-77
2021/09/21 08:06:41;;;;;;;3.17;2.90;;;;;;;11.60;93.15;102105.75;4769737;30;20043;-77
2021/09/21 08:09:12;;;;;;;7.60;3.38;;;;;;;11.63;92.71;102116.19;4753882;30;20467;-77
2021/09/21 08:11:38;;;;;;;4.32;3.15;;;;;;;11.68;92.90;102100.31;4768161;30;20048;-77
2021/09/21 08:14:04;;;;;;;3.55;3.15;;;;;;;11.70;92.69;102095.59;4777676;30;20041;-77
2021/09/21 08:16:30;;;;;;;4.63;3.40;;;;;;;11.75;92.35;102089.66;4755564;30;20398;-77
2021/09/21 08:18:56;;;;;;;4.80;3.40;;;;;;;11.79;91.99;102082.94;4726828;30;20746;-78
2021/09/21 08:21:21;;;;;;;3.95;3.30;;;;;;;11.83;92.30;102086.13;4783967;30;20114;-77
2021/09/21 08:23:47;;;;;;;4.72;3.72;;;;;;;11.85;92.18;102089.50;4756932;30;20046;-78
2021/09/21 08:26:14;;;;;;;3.95;3.42;;;;;;;11.83;92.16;102083.44;4771742;30;20413;-77
2021/09/21 08:28:40;;;;;;;4.93;3.70;;;;;;;11.87;91.96;102092.88;4759268;30;20063;-78
2021/09/21 08:31:06;;;;;;;4.80;3.80;;;;;;;11.89;92.31;102082.75;4771184;30;20078;-78
2021/09/21 08:33:31;;;;;;;5.10;3.50;;;;;;;11.90;92.42;102084.44;4785556;30;20093;-78
2021/09/21 08:35:59;;;;;;;7.00;3.85;;;;;;;11.92;92.21;102087.75;4769774;30;20478;-78
2021/09/21 08:38:25;;;;;;;4.80;3.70;;;;;;;11.88;91.96;102087.28;4754609;30;20359;-77
2021/09/21 08:40:50;;;;;;;7.13;3.88;;;;;;;11.89;92.88;102077.34;4769848;30;20049;-79
2021/09/21 08:43:15;;;;;;;5.40;3.60;;;;;;;11.86;93.10;102085.81;4769674;30;20031;-78
2021/09/21 08:45:41;;;;;;;8.48;4.20;;;;;;;11.82;93.39;102092.50;4754564;30;20048;-78
2021/09/21 08:48:06;;;;;;;5.47;3.95;;;;;;;11.74;93.90;102075.34;4787129;30;20048;-77
2021/09/21 08:50:32;;;;;;;7.38;3.92;;;;;;;11.75;94.25;102082.44;4776589;30;20039;-79
2021/09/21 08:52:57;;;;;;;5.20;3.85;;;;;;;11.64;94.40;102058.56;4755699;30;20048;-78
2021/09/21 08:55:22;;;;;;;6.93;4.07;;;;;;;11.72;94.82;102081.94;4773500;30;20039;-78
2021/09/21 08:57:48;;;;;;;5.15;4.22;;;;;;;11.66;94.92;102066.47;4771261;30;20064;-77
2021/09/21 09:00:28;;;;;;;8.48;3.95;;;;;;;11.64;94.88;102069.34;4755249;30;20402;-77
2021/09/21 09:03:11;;;;;;;5.70;3.70;;;;;;;11.66;95.34;102070.00;4772328;30;20016;-77
2021/09/21 09:05:47;;;;;;;6.82;4.30;;;;;;;11.68;95.80;102070.66;4771046;30;20024;-77
2021/09/21 09:08:13;;;;;;;6.43;4.28;;;;;;;11.66;95.83;102058.41;4769974;30;20031;-79
2021/09/21 09:10:38;;;;;;;6.20;3.80;;;;;;;11.66;95.98;102058.41;4766461;30;20109;-78
2021/09/21 09:13:15;;;;;;;6.50;3.80;;;;;;;11.63;95.80;102048.78;4773904;30;20023;-77
2021/09/21 09:15:40;;;;;;;5.07;4.00;;;;;;;11.74;95.83;102058.34;4758527;30;20122;-78
2021/09/21 09:18:05;;;;;;;6.88;4.55;;;;;;;11.70;95.74;102049.75;4776167;30;20434;-78
2021/09/21 09:20:36;;;;;;;5.28;3.97;;;;;;;11.79;95.37;102050.56;4773385;30;20166;-79
2021/09/21 09:23:06;;;;;;;8.98;4.35;;;;;;;11.83;95.06;102041.09;4772114;30;20036;-78
2021/09/21 09:25:32;;;;;;;8.10;4.50;;;;;;;11.84;95.09;102036.56;4758010;30;20124;-79
2021/09/21 09:27:58;;;;;;;5.65;4.30;;;;;;;11.88;95.26;102033.34;4776791;30;20144;-79
2021/09/21 09:30:25;;;;;;;9.07;4.35;;;;;;;11.92;95.06;102029.28;4776908;30;20035;-77
2021/09/21 09:33:10;;;;;;;7.55;3.97;;;;;;;11.90;94.71;102042.09;4755014;30;20048;-78
2021/09/21 09:35:36;;;;;;;;;;;;;;;11.88;94.87;102032.50;4768322;30;20370;-79
2021/09/21 09:38:09;;;;;;;10.68;4.30;;;;;;;11.93;94.38;102038.22;4757920;30;19925;-78
2021/09/21 09:40:53;;;;;;;7.00;3.70;;;;;;;11.88;94.40;102024.41;4772085;30;20047;-79
2021/09/21 09:43:21;;;;;;;9.52;3.90;;;;;;;11.95;94.24;102030.78;4752801;30;20032;-78
2021/09/21 09:45:50;;;;;;;5.22;3.63;;;;;;;12.02;93.62;102029.06;4761083;30;20035;-78
2021/09/21 09:48:18;;;;;;;4.40;3.17;;;;;;;11.97;93.38;102012.56;4770849;30;20043;-78
2021/09/21 09:50:46;;;;;;;6.50;3.65;;;;;;;12.02;93.07;102020.97;4755539;30;20062;-78
2021/09/21 09:53:11;;;;;;;5.88;3.17;;;;;;;12.02;92.56;102026.38;4771457;30;20035;-79
2021/09/21 09:55:38;;;;;;;7.55;3.17;;;;;;;11.93;93.07;102005.84;4768467;30;20264;-79
2021/09/21 09:58:05;;;;;;;6.95;3.75;;;;;;;11.87;92.86;102009.25;4755334;30;20050;-79
2021/09/21 10:00:31;;;;;;;7.95;3.95;;;;;;;11.93;93.14;102012.09;4767931;30;20031;-78
2021/09/21 10:03:00;;;;;;;9.27;3.80;;;;;;;11.94;93.97;102004.81;4768103;30;20459;-78
2021/09/21 10:05:28;;;;;;;5.95;3.78;;;;;;;11.89;94.65;101994.59;4753474;30;20107;-78
2021/09/21 10:07:55;;;;;;;5.82;3.95;;;;;;;11.92;95.63;101988.84;4767514;30;20044;-78
2021/09/21 10:10:23;;;;;;;5.25;3.80;;;;;;;11.82;96.15;101982.81;4754642;30;20048;-78
2021/09/21 10:12:48;;;;;;;10.95;4.20;;;;;;;11.80;96.57;101986.69;4768429;30;20043;-77
2021/09/21 10:15:15;;;;;;;9.90;4.28;;;;;;;11.79;96.91;101990.38;4761310;30;20036;-77
2021/09/21 10:17:53;;;;;;;7.60;4.22;;;;;;;11.72;97.29;101995.66;4776254;30;20118;-77
2021/09/21 10:20:20;;;;;;;8.20;4.88;;;;;;;11.74;97.56;101983.66;4752205;30;20059;-79
2021/09/21 10:22:54;;;;;;;7.30;3.85;;;;;;;11.79;97.59;101990.38;4767788;30;20024;-78
2021/09/21 10:25:32;;;;;;;5.50;3.97;;;;;;;11.80;97.69;101984.84;4765479;30;20459;-77
2021/09/21 10:27:59;;;;;;;9.10;4.45;;;;;;;11.82;98.04;101985.50;4766000;30;20068;-78
2021/09/21 10:30:31;;;;;;;8.23;4.38;;;;;;;11.66;98.40;101955.94;4752160;30;20111;-77
2021/09/21 10:33:00;;;;;;;10.73;4.60;;;;;;;11.80;98.91;101990.22;4756798;30;20447;-78
2021/09/21 10:35:29;;;;;;;10.90;4.93;;;;;;;11.77;98.91;101967.13;4768742;30;20050;-78
2021/09/21 10:38:08;;;;;;;6.93;4.50;;;;;;;11.78;99.62;101967.97;4766364;30;20035;-77
2021/09/21 10:40:39;;;;;;;6.32;4.35;;;;;;;11.85;99.51;101970.81;4753002;30;20118;-78
2021/09/21 10:43:24;;;;;;;6.68;4.35;;;;;;;11.77;99.70;101956.34;4769165;30;20027;-78
2021/09/21 10:45:50;;;;;;;9.07;4.22;;;;;;;11.82;99.75;101952.28;4757220;30;20059;-79
2021/09/21 10:48:22;;;;;;;7.93;4.32;;;;;;;11.86;99.98;101956.34;4753680;30;20478;-77
2021/09/21 10:50:58;;;;;;;6.47;4.47;;;;;;;11.87;99.78;101949.94;4753106;30;20066;-79
2021/09/21 10:53:25;;;;;;;6.40;3.85;;;;;;;11.92;99.86;101947.50;4751547;30;20043;-78
2021/09/21 10:56:16;;;;;;;8.80;4.40;;;;;;;12.04;99.91;101951.47;4767007;30;20059;-77
2021/09/21 10:58:59;;;;;;;7.25;4.30;;;;;;;12.09;99.82;101957.19;4769741;30;20046;-77
2021/09/21 11:01:25;;;;;;;7.13;4.43;;;;;;;12.05;100.00;101930.72;4768890;30;20036;-78
2021/09/21 11:03:51;;;;;;;7.28;3.38;;;;;;;12.16;100.00;101938.41;4752211;30;20042;-78
2021/09/21 11:06:16;;;;;;;8.50;3.78;;;;;;;12.14;100.00;101932.34;4752242;30;20052;-78
2021/09/21 11:08:44;;;;;;;6.63;3.85;;;;;;;12.07;100.00;101921.44;4768194;30;20038;-77
2021/09/21 11:11:10;;;;;;;9.07;3.78;;;;;;;12.08;100.00;101925.81;4753227;30;20031;-78
2021/09/21 11:13:40;;;;;;;7.88;4.38;;;;;;;12.07;100.00;101934.09;4750931;30;20047;-78
2021/09/21 11:16:09;;;;;;;9.73;4.05;;;;;;;12.07;100.00;101929.53;4767879;30;20032;-77
2021/09/21 11:18:36;;;;;;;7.22;3.63;;;;;;;12.07;100.00;101924.13;4751132;30;20117;-78
2021/09/21 11:21:07;;;;;;;7.32;3.35;;;;;;;12.08;100.00;101930.38;4737795;30;20035;-78
2021/09/21 11:23:40;;;;;;;8.63;3.78;;;;;;;12.06;100.00;101924.34;4768873;30;20031;-78
2021/09/21 11:26:11;;;;;;;8.30;4.00;;;;;;;12.06;100.00;101924.34;4755386;30;20366;-78
2021/09/21 11:28:42;;;;;;;7.95;3.50;;;;;;;11.99;100.00;101916.13;4771195;30;20370;-78
2021/09/21 11:31:08;;;;;;;10.32;4.10;;;;;;;12.02;100.00;101921.16;4771290;30;20035;-78
2021/09/21 11:33:37;;;;;;;9.27;4.50;;;;;;;12.03;100.00;101933.63;4771334;30;20478;-78
2021/09/21 11:36:10;;;;;;;9.00;4.45;;;;;;;12.06;100.00;101921.63;4778806;30;20039;-78